sensor_id;sensor_type;location;lat;lon;timestamp;pressure;altitude;pressure_sealevel;temperature;humidity
72975;BME280;61166;54.228;37.632;2022-08-20T00:00:58;100121.75;;;16.23;nan
72975;BME280;61166;54.228;37.632;2022-08-20T00:03:28;100124.88;;;16.32;nan
72975;BME280;61166;54.228;37.632;2022-08-20T00:06:20;100124.03;;;16.19;nan
72975;BME280;61166;54.228;37.632;2022-08-20T00:08:43;100113.97;;;16.10;nan
72975;BME280;61166;54.228;37.632;2022-08-20T00:11:12;100111.91;;;16.12;nan
72975;BME280;61166;54.228;37.632;2022-08-20T00:13:42;100117.47;;;16.22;nan
72975;BME280;61166;54.228;37.632;2022-08-20T00:16:08;100123.34;;;16.12;nan
72975;BME280;61166;54.228;37.632;2022-08-20T00:18:34;100137.88;;;16.22;nan
72975;BME280;61166;54.228;37.632;2022-08-20T00:21:05;100124.41;;;16.23;nan
72975;BME280;61166;54.228;37.632;2022-08-20T00:23:34;100129.34;;;16.19;nan
72975;BME280;61166;54.228;37.632;2022-08-20T00:26:00;100131.06;;;16.14;nan
72975;BME280;61166;54.228;37.632;2022-08-20T00:28:25;100128.09;;;16.22;nan
72975;BME280;61166;54.228;37.632;2022-08-20T00:30:50;100136.72;;;16.17;nan
72975;BME280;61166;54.228;37.632;2022-08-20T00:33:20;100137.00;;;16.28;nan
72975;BME280;61166;54.228;37.632;2022-08-20T00:35:49;100126.88;;;16.06;nan
72975;BME280;61166;54.228;37.632;2022-08-20T00:38:16;100130.25;;;16.13;nan
72975;BME280;61166;54.228;37.632;2022-08-20T00:40:54;100133.22;;;16.05;nan
72975;BME280;61166;54.228;37.632;2022-08-20T00:45:55;100128.53;;;16.19;nan
72975;BME280;61166;54.228;37.632;2022-08-20T00:48:30;100134.31;;;16.16;nan
72975;BME280;61166;54.228;37.632;2022-08-20T00:51:02;100129.56;;;15.88;nan
72975;BME280;61166;54.228;37.632;2022-08-20T00:53:30;100124.53;;;15.98;nan
72975;BME280;61166;54.228;37.632;2022-08-20T00:55:56;100131.31;;;15.94;nan
72975;BME280;61166;54.228;37.632;2022-08-20T00:58:21;100121.38;;;15.71;nan
72975;BME280;61166;54.228;37.632;2022-08-20T01:00:47;100123.44;;;15.88;nan
72975;BME280;61166;54.228;37.632;2022-08-20T01:03:16;100116.00;;;15.78;nan
72975;BME280;61166;54.228;37.632;2022-08-20T01:05:48;100126.69;;;15.53;nan
72975;BME280;61166;54.228;37.632;2022-08-20T01:08:15;100119.75;;;15.70;nan
72975;BME280;61166;54.228;37.632;2022-08-20T01:10:43;100121.59;;;15.70;nan
72975;BME280;61166;54.228;37.632;2022-08-20T01:13:15;100117.16;;;15.45;nan
72975;BME280;61166;54.228;37.632;2022-08-20T01:15:43;100135.84;;;15.57;nan
72975;BME280;61166;54.228;37.632;2022-08-20T01:18:15;100116.47;;;15.57;nan
72975;BME280;61166;54.228;37.632;2022-08-20T01:20:47;100131.94;;;15.60;nan
72975;BME280;61166;54.228;37.632;2022-08-20T01:23:20;100120.78;;;15.51;nan
72975;BME280;61166;54.228;37.632;2022-08-20T01:28:35;100144.59;;;15.58;nan
72975;BME280;61166;54.228;37.632;2022-08-20T01:31:04;100133.59;;;15.54;nan
72975;BME280;61166;54.228;37.632;2022-08-20T01:33:30;100132.06;;;15.65;nan
72975;BME280;61166;54.228;37.632;2022-08-20T01:35:56;100132.38;;;15.57;nan
72975;BME280;61166;54.228;37.632;2022-08-20T01:38:22;100137.13;;;15.48;nan
72975;BME280;61166;54.228;37.632;2022-08-20T01:41:12;100125.09;;;15.27;nan
72975;BME280;61166;54.228;37.632;2022-08-20T01:43:41;100135.25;;;15.30;nan
72975;BME280;61166;54.228;37.632;2022-08-20T01:46:09;100144.63;;;15.33;nan
72975;BME280;61166;54.228;37.632;2022-08-20T01:48:38;100131.09;;;15.41;nan
72975;BME280;61166;54.228;37.632;2022-08-20T01:51:16;100131.94;;;15.60;nan
72975;BME280;61166;54.228;37.632;2022-08-20T01:53:46;100121.06;;;15.43;nan
72975;BME280;61166;54.228;37.632;2022-08-20T01:56:17;100123.00;;;15.54;nan
72975;BME280;61166;54.228;37.632;2022-08-20T01:58:47;100126.47;;;15.55;nan
72975;BME280;61166;54.228;37.632;2022-08-20T02:01:39;100119.97;;;15.50;nan
72975;BME280;61166;54.228;37.632;2022-08-20T02:04:07;100111.38;;;15.55;nan
72975;BME280;61166;54.228;37.632;2022-08-20T02:06:41;100125.13;;;15.64;nan
72975;BME280;61166;54.228;37.632;2022-08-20T02:09:08;100116.00;;;15.41;nan
72975;BME280;61166;54.228;37.632;2022-08-20T02:11:35;100132.91;;;15.40;nan
72975;BME280;61166;54.228;37.632;2022-08-20T02:14:03;100119.25;;;15.62;nan
72975;BME280;61166;54.228;37.632;2022-08-20T02:16:31;100115.13;;;15.47;nan
72975;BME280;61166;54.228;37.632;2022-08-20T02:19:00;100127.13;;;15.50;nan
72975;BME280;61166;54.228;37.632;2022-08-20T02:21:30;100113.81;;;15.57;nan
72975;BME280;61166;54.228;37.632;2022-08-20T02:23:57;100119.31;;;15.73;nan
72975;BME280;61166;54.228;37.632;2022-08-20T02:26:23;100120.19;;;15.67;nan
72975;BME280;61166;54.228;37.632;2022-08-20T02:28:50;100115.56;;;15.81;nan
72975;BME280;61166;54.228;37.632;2022-08-20T02:31:18;100118.16;;;15.69;nan
72975;BME280;61166;54.228;37.632;2022-08-20T02:33:44;100121.44;;;15.83;nan
72975;BME280;61166;54.228;37.632;2022-08-20T02:36:10;100119.09;;;15.93;nan
72975;BME280;61166;54.228;37.632;2022-08-20T02:38:38;100144.88;;;15.86;nan
72975;BME280;61166;54.228;37.632;2022-08-20T02:41:04;100135.09;;;15.87;nan
72975;BME280;61166;54.228;37.632;2022-08-20T02:43:30;100124.16;;;15.95;nan
72975;BME280;61166;54.228;37.632;2022-08-20T02:45:56;100119.44;;;15.97;nan
72975;BME280;61166;54.228;37.632;2022-08-20T02:48:24;100133.91;;;16.01;nan
72975;BME280;61166;54.228;37.632;2022-08-20T02:50:54;100129.03;;;15.98;nan
72975;BME280;61166;54.228;37.632;2022-08-20T02:53:21;100116.34;;;16.00;nan
72975;BME280;61166;54.228;37.632;2022-08-20T02:55:47;100136.19;;;15.97;nan
72975;BME280;61166;54.228;37.632;2022-08-20T02:58:13;100140.69;;;15.97;nan
72975;BME280;61166;54.228;37.632;2022-08-20T03:00:39;100135.59;;;15.95;nan
72975;BME280;61166;54.228;37.632;2022-08-20T03:03:07;100133.53;;;15.97;nan
72975;BME280;61166;54.228;37.632;2022-08-20T03:05:33;100124.75;;;15.97;nan
72975;BME280;61166;54.228;37.632;2022-08-20T03:07:58;100132.56;;;15.92;nan
72975;BME280;61166;54.228;37.632;2022-08-20T03:10:28;100122.69;;;15.99;nan
72975;BME280;61166;54.228;37.632;2022-08-20T03:12:53;100125.56;;;15.97;nan
72975;BME280;61166;54.228;37.632;2022-08-20T03:15:19;100121.06;;;15.98;nan
72975;BME280;61166;54.228;37.632;2022-08-20T03:17:45;100115.03;;;15.91;nan
72975;BME280;61166;54.228;37.632;2022-08-20T03:20:12;100131.31;;;15.94;nan
72975;BME280;61166;54.228;37.632;2022-08-20T03:22:38;100125.19;;;15.94;nan
72975;BME280;61166;54.228;37.632;2022-08-20T03:25:04;100124.19;;;15.76;nan
72975;BME280;61166;54.228;37.632;2022-08-20T03:27:30;100129.47;;;15.40;nan
72975;BME280;61166;54.228;37.632;2022-08-20T03:29:56;100116.00;;;15.41;nan
72975;BME280;61166;54.228;37.632;2022-08-20T03:32:21;100108.72;;;15.55;nan
72975;BME280;61166;54.228;37.632;2022-08-20T03:34:47;100137.13;;;15.48;nan
72975;BME280;61166;54.228;37.632;2022-08-20T03:37:12;100114.09;;;15.67;nan
72975;BME280;61166;54.228;37.632;2022-08-20T03:39:38;100128.09;;;15.92;nan
72975;BME280;61166;54.228;37.632;2022-08-20T03:42:04;100131.59;;;16.04;nan
72975;BME280;61166;54.228;37.632;2022-08-20T03:44:30;100133.50;;;16.15;nan
72975;BME280;61166;54.228;37.632;2022-08-20T03:46:55;100135.22;;;16.22;nan
72975;BME280;61166;54.228;37.632;2022-08-20T03:49:21;100133.22;;;16.35;nan
72975;BME280;61166;54.228;37.632;2022-08-20T03:51:49;100135.97;;;16.29;nan
72975;BME280;61166;54.228;37.632;2022-08-20T03:54:15;100151.28;;;16.27;nan
72975;BME280;61166;54.228;37.632;2022-08-20T03:56:40;100134.47;;;16.33;nan
72975;BME280;61166;54.228;37.632;2022-08-20T03:59:06;100142.44;;;16.33;nan
72975;BME280;61166;54.228;37.632;2022-08-20T04:01:32;100151.28;;;16.27;nan
72975;BME280;61166;54.228;37.632;2022-08-20T04:03:58;100155.94;;;16.01;nan
72975;BME280;61166;54.228;37.632;2022-08-20T04:06:24;100135.16;;;15.98;nan
72975;BME280;61166;54.228;37.632;2022-08-20T04:08:49;100130.72;;;15.92;nan
72975;BME280;61166;54.228;37.632;2022-08-20T04:11:17;100140.53;;;16.10;nan
72975;BME280;61166;54.228;37.632;2022-08-20T04:13:43;100134.13;;;15.99;nan
72975;BME280;61166;54.228;37.632;2022-08-20T04:16:08;100129.97;;;16.03;nan
72975;BME280;61166;54.228;37.632;2022-08-20T04:18:35;100122.16;;;16.08;nan
72975;BME280;61166;54.228;37.632;2022-08-20T04:21:02;100132.84;;;16.32;nan
72975;BME280;61166;54.228;37.632;2022-08-20T04:23:28;100148.47;;;16.40;nan
72975;BME280;61166;54.228;37.632;2022-08-20T04:25:56;100130.25;;;16.43;nan
72975;BME280;61166;54.228;37.632;2022-08-20T04:28:23;100135.47;;;16.50;nan
72975;BME280;61166;54.228;37.632;2022-08-20T04:30:57;100125.84;;;16.67;nan
72975;BME280;61166;54.228;37.632;2022-08-20T04:33:25;100118.09;;;16.66;nan
72975;BME280;61166;54.228;37.632;2022-08-20T04:35:52;100122.97;;;16.69;nan
72975;BME280;61166;54.228;37.632;2022-08-20T04:38:20;100149.88;;;16.72;nan
72975;BME280;61166;54.228;37.632;2022-08-20T04:40:46;100164.41;;;16.81;nan
72975;BME280;61166;54.228;37.632;2022-08-20T04:43:35;100150.03;;;17.12;nan
72975;BME280;61166;54.228;37.632;2022-08-20T04:46:05;100148.31;;;17.18;nan
72975;BME280;61166;54.228;37.632;2022-08-20T04:48:32;100135.31;;;17.33;nan
72975;BME280;61166;54.228;37.632;2022-08-20T04:50:58;100138.44;;;17.54;nan
72975;BME280;61166;54.228;37.632;2022-08-20T04:53:27;100146.19;;;17.43;nan
72975;BME280;61166;54.228;37.632;2022-08-20T04:55:55;100149.78;;;17.49;nan
72975;BME280;61166;54.228;37.632;2022-08-20T04:58:24;100137.28;;;17.49;nan
72975;BME280;61166;54.228;37.632;2022-08-20T05:01:04;100142.13;;;17.53;nan
72975;BME280;61166;54.228;37.632;2022-08-20T05:03:30;100128.47;;;17.61;nan
72975;BME280;61166;54.228;37.632;2022-08-20T05:05:56;100150.69;;;17.55;nan
72975;BME280;61166;54.228;37.632;2022-08-20T05:08:23;100117.50;;;17.57;nan
72975;BME280;61166;54.228;37.632;2022-08-20T05:10:50;100120.28;;;17.50;nan
72975;BME280;61166;54.228;37.632;2022-08-20T05:13:16;100141.78;;;17.61;nan
72975;BME280;61166;54.228;37.632;2022-08-20T05:15:42;100116.81;;;17.62;nan
72975;BME280;61166;54.228;37.632;2022-08-20T05:18:10;100116.72;;;17.68;nan
72975;BME280;61166;54.228;37.632;2022-08-20T05:20:39;100133.00;;;17.72;nan
72975;BME280;61166;54.228;37.632;2022-08-20T05:23:09;100116.78;;;17.85;nan
72975;BME280;61166;54.228;37.632;2022-08-20T05:25:36;100142.94;;;17.88;nan
72975;BME280;61166;54.228;37.632;2022-08-20T05:28:10;100123.91;;;17.96;nan
72975;BME280;61166;54.228;37.632;2022-08-20T05:30:39;100130.66;;;17.87;nan
72975;BME280;61166;54.228;37.632;2022-08-20T05:33:06;100137.16;;;17.79;nan
72975;BME280;61166;54.228;37.632;2022-08-20T05:35:34;100136.47;;;17.72;nan
72975;BME280;61166;54.228;37.632;2022-08-20T05:38:03;100144.59;;;17.66;nan
72975;BME280;61166;54.228;37.632;2022-08-20T05:40:29;100141.69;;;17.56;nan
72975;BME280;61166;54.228;37.632;2022-08-20T05:42:54;100148.50;;;17.52;nan
72975;BME280;61166;54.228;37.632;2022-08-20T05:45:20;100129.31;;;17.38;nan
72975;BME280;61166;54.228;37.632;2022-08-20T05:47:46;100147.47;;;17.41;nan
72975;BME280;61166;54.228;37.632;2022-08-20T05:50:13;100163.53;;;17.34;nan
72975;BME280;61166;54.228;37.632;2022-08-20T05:52:39;100181.69;;;17.37;nan
72975;BME280;61166;54.228;37.632;2022-08-20T05:55:05;100183.69;;;17.30;nan
72975;BME280;61166;54.228;37.632;2022-08-20T05:57:31;100149.56;;;17.27;nan
72975;BME280;61166;54.228;37.632;2022-08-20T05:59:58;100169.56;;;17.18;nan
72975;BME280;61166;54.228;37.632;2022-08-20T06:02:23;100171.84;;;17.03;nan
72975;BME280;61166;54.228;37.632;2022-08-20T06:05:07;100167.94;;;17.17;nan
72975;BME280;61166;54.228;37.632;2022-08-20T06:07:33;100182.75;;;17.13;nan
72975;BME280;61166;54.228;37.632;2022-08-20T06:09:59;100168.28;;;17.09;nan
72975;BME280;61166;54.228;37.632;2022-08-20T06:12:25;100183.53;;;17.02;nan
72975;BME280;61166;54.228;37.632;2022-08-20T06:14:50;100167.34;;;17.03;nan
72975;BME280;61166;54.228;37.632;2022-08-20T06:17:17;100172.09;;;17.13;nan
72975;BME280;61166;54.228;37.632;2022-08-20T06:19:44;100167.81;;;17.00;nan
72975;BME280;61166;54.228;37.632;2022-08-20T06:22:11;100174.19;;;17.11;nan
72975;BME280;61166;54.228;37.632;2022-08-20T06:24:36;100167.00;;;17.00;nan
72975;BME280;61166;54.228;37.632;2022-08-20T06:27:03;100157.28;;;16.94;nan
72975;BME280;61166;54.228;37.632;2022-08-20T06:29:29;100168.13;;;16.80;nan
72975;BME280;61166;54.228;37.632;2022-08-20T06:31:58;100178.09;;;16.97;nan
72975;BME280;61166;54.228;37.632;2022-08-20T06:34:23;100175.72;;;16.65;nan
72975;BME280;61166;54.228;37.632;2022-08-20T06:36:53;100168.47;;;16.72;nan
72975;BME280;61166;54.228;37.632;2022-08-20T06:39:18;100170.63;;;16.75;nan
72975;BME280;61166;54.228;37.632;2022-08-20T06:41:43;100165.81;;;16.84;nan
72975;BME280;61166;54.228;37.632;2022-08-20T06:44:09;100172.88;;;16.90;nan
72975;BME280;61166;54.228;37.632;2022-08-20T06:46:35;100161.94;;;17.10;nan
72975;BME280;61166;54.228;37.632;2022-08-20T06:49:03;100159.84;;;17.12;nan
72975;BME280;61166;54.228;37.632;2022-08-20T06:51:29;100165.28;;;17.17;nan
72975;BME280;61166;54.228;37.632;2022-08-20T06:53:55;100160.75;;;17.53;nan
72975;BME280;61166;54.228;37.632;2022-08-20T06:56:20;100162.38;;;17.77;nan
72975;BME280;61166;54.228;37.632;2022-08-20T06:58:46;100164.38;;;18.10;nan
72975;BME280;61166;54.228;37.632;2022-08-20T07:01:11;100161.38;;;18.35;nan
72975;BME280;61166;54.228;37.632;2022-08-20T07:03:38;100171.00;;;18.64;nan
72975;BME280;61166;54.228;37.632;2022-08-20T07:06:05;100152.34;;;18.64;nan
72975;BME280;61166;54.228;37.632;2022-08-20T07:08:30;100161.63;;;18.33;nan
72975;BME280;61166;54.228;37.632;2022-08-20T07:10:56;100163.06;;;17.61;nan
72975;BME280;61166;54.228;37.632;2022-08-20T07:13:21;100158.81;;;17.13;nan
72975;BME280;61166;54.228;37.632;2022-08-20T07:15:47;100161.44;;;16.90;nan
72975;BME280;61166;54.228;37.632;2022-08-20T07:18:14;100164.28;;;16.65;nan
72975;BME280;61166;54.228;37.632;2022-08-20T07:20:39;100178.13;;;16.37;nan
72975;BME280;61166;54.228;37.632;2022-08-20T07:23:05;100144.88;;;16.04;nan
72975;BME280;61166;54.228;37.632;2022-08-20T07:25:32;100154.09;;;15.83;nan
72975;BME280;61166;54.228;37.632;2022-08-20T07:28:04;100167.19;;;15.60;nan
72975;BME280;61166;54.228;37.632;2022-08-20T07:30:30;100162.63;;;15.49;nan
72975;BME280;61166;54.228;37.632;2022-08-20T07:33:14;100150.28;;;15.36;nan
72975;BME280;61166;54.228;37.632;2022-08-20T07:35:40;100151.28;;;15.17;nan
72975;BME280;61166;54.228;37.632;2022-08-20T07:38:06;100154.03;;;15.29;nan
72975;BME280;61166;54.228;37.632;2022-08-20T07:40:37;100140.84;;;15.22;nan
72975;BME280;61166;54.228;37.632;2022-08-20T07:43:03;100148.41;;;15.18;nan
72975;BME280;61166;54.228;37.632;2022-08-20T07:45:29;100118.63;;;15.23;nan
72975;BME280;61166;54.228;37.632;2022-08-20T07:48:05;100153.31;;;15.40;nan
72975;BME280;61166;54.228;37.632;2022-08-20T07:50:31;100138.94;;;15.29;nan
72975;BME280;61166;54.228;37.632;2022-08-20T07:52:56;100151.97;;;15.31;nan
72975;BME280;61166;54.228;37.632;2022-08-20T07:55:24;100159.13;;;15.30;nan
72975;BME280;61166;54.228;37.632;2022-08-20T07:57:50;100161.28;;;15.40;nan
72975;BME280;61166;54.228;37.632;2022-08-20T08:00:18;100159.75;;;15.69;nan
72975;BME280;61166;54.228;37.632;2022-08-20T08:02:44;100163.81;;;15.71;nan
72975;BME280;61166;54.228;37.632;2022-08-20T08:05:10;100153.28;;;16.01;nan
72975;BME280;61166;54.228;37.632;2022-08-20T08:07:37;100160.28;;;16.14;nan
72975;BME280;61166;54.228;37.632;2022-08-20T08:10:05;100154.84;;;16.21;nan
72975;BME280;61166;54.228;37.632;2022-08-20T08:12:42;100167.47;;;16.55;nan
72975;BME280;61166;54.228;37.632;2022-08-20T08:15:14;100158.78;;;17.01;nan
72975;BME280;61166;54.228;37.632;2022-08-20T08:17:42;100158.22;;;17.34;nan
72975;BME280;61166;54.228;37.632;2022-08-20T08:20:09;100155.22;;;17.77;nan
72975;BME280;61166;54.228;37.632;2022-08-20T08:22:36;100148.81;;;18.19;nan
72975;BME280;61166;54.228;37.632;2022-08-20T08:25:04;100138.44;;;18.62;nan
72975;BME280;61166;54.228;37.632;2022-08-20T08:27:30;100147.03;;;18.81;nan
72975;BME280;61166;54.228;37.632;2022-08-20T08:30:00;100144.47;;;18.58;nan
72975;BME280;61166;54.228;37.632;2022-08-20T08:32:26;100131.53;;;18.78;nan
72975;BME280;61166;54.228;37.632;2022-08-20T08:34:52;100151.88;;;19.01;nan
72975;BME280;61166;54.228;37.632;2022-08-20T08:37:18;100166.09;;;18.90;nan
72975;BME280;61166;54.228;37.632;2022-08-20T08:39:43;100157.19;;;18.67;nan
72975;BME280;61166;54.228;37.632;2022-08-20T08:42:34;100150.44;;;18.48;nan
72975;BME280;61166;54.228;37.632;2022-08-20T08:45:06;100148.66;;;18.37;nan
72975;BME280;61166;54.228;37.632;2022-08-20T08:47:35;100146.31;;;18.40;nan
72975;BME280;61166;54.228;37.632;2022-08-20T08:50:03;100133.63;;;18.31;nan
72975;BME280;61166;54.228;37.632;2022-08-20T08:52:33;100124.34;;;18.50;nan
72975;BME280;61166;54.228;37.632;2022-08-20T08:55:03;100121.44;;;18.35;nan
72975;BME280;61166;54.228;37.632;2022-08-20T08:57:30;100102.72;;;18.30;nan
72975;BME280;61166;54.228;37.632;2022-08-20T09:00:04;100126.38;;;18.14;nan
72975;BME280;61166;54.228;37.632;2022-08-20T09:02:31;100109.03;;;18.40;nan
72975;BME280;61166;54.228;37.632;2022-08-20T09:04:59;100120.72;;;18.56;nan
72975;BME280;61166;54.228;37.632;2022-08-20T09:07:29;100122.34;;;18.57;nan
72975;BME280;61166;54.228;37.632;2022-08-20T09:09:56;100122.47;;;18.62;nan
72975;BME280;61166;54.228;37.632;2022-08-20T09:12:23;100119.59;;;18.52;nan
72975;BME280;61166;54.228;37.632;2022-08-20T09:14:50;100114.50;;;18.34;nan
72975;BME280;61166;54.228;37.632;2022-08-20T09:17:17;100126.09;;;18.28;nan
72975;BME280;61166;54.228;37.632;2022-08-20T09:19:43;100114.66;;;18.27;nan
72975;BME280;61166;54.228;37.632;2022-08-20T09:22:10;100144.50;;;18.29;nan
72975;BME280;61166;54.228;37.632;2022-08-20T09:24:36;100129.53;;;18.40;nan
72975;BME280;61166;54.228;37.632;2022-08-20T09:27:02;100119.25;;;18.32;nan
72975;BME280;61166;54.228;37.632;2022-08-20T09:29:28;100120.91;;;18.21;nan
72975;BME280;61166;54.228;37.632;2022-08-20T09:32:15;100134.56;;;18.25;nan
72975;BME280;61166;54.228;37.632;2022-08-20T09:34:47;100123.63;;;18.09;nan
72975;BME280;61166;54.228;37.632;2022-08-20T09:37:13;100129.22;;;17.96;nan
72975;BME280;61166;54.228;37.632;2022-08-20T09:39:39;100103.00;;;17.88;nan
72975;BME280;61166;54.228;37.632;2022-08-20T09:42:09;100108.13;;;18.06;nan
72975;BME280;61166;54.228;37.632;2022-08-20T09:44:35;100117.34;;;18.15;nan
72975;BME280;61166;54.228;37.632;2022-08-20T09:47:01;100148.34;;;18.22;nan
72975;BME280;61166;54.228;37.632;2022-08-20T09:49:26;100122.00;;;18.37;nan
72975;BME280;61166;54.228;37.632;2022-08-20T09:51:52;100111.16;;;18.27;nan
72975;BME280;61166;54.228;37.632;2022-08-20T09:54:18;100118.59;;;18.25;nan
72975;BME280;61166;54.228;37.632;2022-08-20T09:56:45;100123.72;;;18.14;nan
72975;BME280;61166;54.228;37.632;2022-08-20T09:59:11;100128.97;;;17.98;nan
72975;BME280;61166;54.228;37.632;2022-08-20T10:01:38;100131.50;;;18.04;nan
72975;BME280;61166;54.228;37.632;2022-08-20T10:04:03;100131.03;;;17.79;nan
72975;BME280;61166;54.228;37.632;2022-08-20T10:06:29;100127.03;;;17.93;nan
72975;BME280;61166;54.228;37.632;2022-08-20T10:08:54;100134.06;;;17.99;nan
72975;BME280;61166;54.228;37.632;2022-08-20T10:11:19;100135.22;;;18.03;nan
72975;BME280;61166;54.228;37.632;2022-08-20T10:13:45;100130.25;;;17.95;nan
72975;BME280;61166;54.228;37.632;2022-08-20T10:16:11;100126.44;;;18.03;nan
72975;BME280;61166;54.228;37.632;2022-08-20T10:18:37;100124.22;;;18.00;nan
72975;BME280;61166;54.228;37.632;2022-08-20T10:21:08;100122.00;;;18.08;nan
72975;BME280;61166;54.228;37.632;2022-08-20T10:23:33;100119.91;;;18.10;nan
72975;BME280;61166;54.228;37.632;2022-08-20T10:25:59;100113.94;;;18.03;nan
72975;BME280;61166;54.228;37.632;2022-08-20T10:28:24;100118.34;;;17.98;nan
72975;BME280;61166;54.228;37.632;2022-08-20T10:30:49;100117.16;;;18.05;nan
72975;BME280;61166;54.228;37.632;2022-08-20T10:33:15;100116.03;;;18.30;nan
72975;BME280;61166;54.228;37.632;2022-08-20T10:35:40;100116.88;;;18.19;nan
72975;BME280;61166;54.228;37.632;2022-08-20T10:38:06;100117.16;;;18.34;nan
72975;BME280;61166;54.228;37.632;2022-08-20T10:40:31;100114.59;;;18.39;nan
72975;BME280;61166;54.228;37.632;2022-08-20T10:42:56;100115.34;;;18.23;nan
72975;BME280;61166;54.228;37.632;2022-08-20T10:45:22;100121.94;;;18.48;nan
72975;BME280;61166;54.228;37.632;2022-08-20T10:47:49;100103.28;;;18.48;nan
72975;BME280;61166;54.228;37.632;2022-08-20T10:50:15;100126.34;;;18.71;nan
72975;BME280;61166;54.228;37.632;2022-08-20T10:52:41;100102.13;;;18.73;nan
72975;BME280;61166;54.228;37.632;2022-08-20T10:55:08;100073.06;;;18.71;nan
72975;BME280;61166;54.228;37.632;2022-08-20T10:57:33;100089.53;;;19.02;nan
72975;BME280;61166;54.228;37.632;2022-08-20T10:59:59;100087.91;;;19.01;nan
72975;BME280;61166;54.228;37.632;2022-08-20T11:02:26;100105.06;;;19.10;nan
72975;BME280;61166;54.228;37.632;2022-08-20T11:04:53;100107.63;;;19.38;nan
72975;BME280;61166;54.228;37.632;2022-08-20T11:09:48;100092.50;;;19.44;nan
72975;BME280;61166;54.228;37.632;2022-08-20T11:12:15;100103.47;;;19.48;nan
72975;BME280;61166;54.228;37.632;2022-08-20T11:14:41;100091.38;;;19.40;nan
72975;BME280;61166;54.228;37.632;2022-08-20T11:17:07;100092.81;;;19.48;nan
72975;BME280;61166;54.228;37.632;2022-08-20T11:19:37;100107.03;;;19.75;nan
72975;BME280;61166;54.228;37.632;2022-08-20T11:22:03;100085.19;;;19.78;nan
72975;BME280;61166;54.228;37.632;2022-08-20T11:24:28;100075.97;;;19.91;nan
72975;BME280;61166;54.228;37.632;2022-08-20T11:26:54;100075.28;;;20.00;nan
72975;BME280;61166;54.228;37.632;2022-08-20T11:29:19;100091.38;;;20.05;nan
72975;BME280;61166;54.228;37.632;2022-08-20T11:31:46;100077.00;;;20.11;nan
72975;BME280;61166;54.228;37.632;2022-08-20T11:34:12;100086.78;;;20.01;nan
72975;BME280;61166;54.228;37.632;2022-08-20T11:36:37;100071.38;;;20.08;nan
72975;BME280;61166;54.228;37.632;2022-08-20T11:39:03;100080.97;;;20.09;nan
72975;BME280;61166;54.228;37.632;2022-08-20T11:41:29;100095.88;;;20.32;nan
72975;BME280;61166;54.228;37.632;2022-08-20T11:43:54;100074.50;;;20.32;nan
72975;BME280;61166;54.228;37.632;2022-08-20T11:46:20;100070.53;;;20.34;nan
72975;BME280;61166;54.228;37.632;2022-08-20T11:48:46;100075.69;;;20.41;nan
72975;BME280;61166;54.228;37.632;2022-08-20T11:51:11;100083.44;;;20.42;nan
72975;BME280;61166;54.228;37.632;2022-08-20T11:53:36;100074.06;;;20.40;nan
72975;BME280;61166;54.228;37.632;2022-08-20T11:56:02;100063.47;;;20.50;nan
72975;BME280;61166;54.228;37.632;2022-08-20T11:58:27;100059.03;;;20.61;nan
72975;BME280;61166;54.228;37.632;2022-08-20T12:00:53;100076.28;;;20.48;nan
72975;BME280;61166;54.228;37.632;2022-08-20T12:03:18;100072.13;;;20.62;nan
72975;BME280;61166;54.228;37.632;2022-08-20T12:05:44;100065.22;;;20.66;nan
72975;BME280;61166;54.228;37.632;2022-08-20T12:08:11;100043.06;;;20.71;nan
72975;BME280;61166;54.228;37.632;2022-08-20T12:10:38;100035.16;;;20.91;nan
72975;BME280;61166;54.228;37.632;2022-08-20T12:13:05;100034.34;;;20.91;nan
72975;BME280;61166;54.228;37.632;2022-08-20T12:15:33;100051.22;;;20.96;nan
72975;BME280;61166;54.228;37.632;2022-08-20T12:17:59;100033.94;;;21.09;nan
72975;BME280;61166;54.228;37.632;2022-08-20T12:20:26;100028.03;;;21.07;nan
72975;BME280;61166;54.228;37.632;2022-08-20T12:22:51;100039.66;;;21.23;nan
72975;BME280;61166;54.228;37.632;2022-08-20T12:25:18;100026.28;;;21.23;nan
72975;BME280;61166;54.228;37.632;2022-08-20T12:27:44;100016.38;;;21.23;nan
72975;BME280;61166;54.228;37.632;2022-08-20T12:30:13;100018.84;;;21.40;nan
72975;BME280;61166;54.228;37.632;2022-08-20T12:32:40;100011.06;;;21.38;nan
72975;BME280;61166;54.228;37.632;2022-08-20T12:35:08;100034.94;;;21.50;nan
72975;BME280;61166;54.228;37.632;2022-08-20T12:37:34;100012.69;;;21.39;nan
72975;BME280;61166;54.228;37.632;2022-08-20T12:40:01;100012.16;;;21.42;nan
72975;BME280;61166;54.228;37.632;2022-08-20T12:42:27;100013.75;;;21.43;nan
72975;BME280;61166;54.228;37.632;2022-08-20T12:44:57;100006.00;;;21.42;nan
72975;BME280;61166;54.228;37.632;2022-08-20T12:47:26;100005.25;;;21.57;nan
72975;BME280;61166;54.228;37.632;2022-08-20T12:50:04;100011.38;;;21.52;nan
72975;BME280;61166;54.228;37.632;2022-08-20T12:52:31;100015.97;;;21.62;nan
72975;BME280;61166;54.228;37.632;2022-08-20T12:54:57;100018.88;;;21.50;nan
72975;BME280;61166;54.228;37.632;2022-08-20T12:57:35;100007.16;;;21.71;nan
72975;BME280;61166;54.228;37.632;2022-08-20T13:00:37;100010.13;;;21.85;nan
72975;BME280;61166;54.228;37.632;2022-08-20T13:03:05;99992.41;;;21.64;nan
72975;BME280;61166;54.228;37.632;2022-08-20T13:05:31;100002.59;;;21.67;nan
72975;BME280;61166;54.228;37.632;2022-08-20T13:07:56;99999.69;;;21.79;nan
72975;BME280;61166;54.228;37.632;2022-08-20T13:10:28;100005.31;;;21.82;nan